createdAt,value
2023-05-23T00:01:16.136Z,99729.00
2023-05-23T00:03:49.669Z,99736.07
2023-05-23T00:06:21.984Z,99730.35
2023-05-23T00:08:53.972Z,99736.55
2023-05-23T00:11:27.414Z,99731.20
2023-05-23T00:14:00.743Z,99727.65
2023-05-23T00:16:33.300Z,99728.09
2023-05-23T00:19:05.540Z,99722.77
2023-05-23T00:21:37.969Z,99719.22
2023-05-23T00:24:10.752Z,99723.18
2023-05-23T00:26:43.557Z,99723.18
2023-05-23T00:29:18.755Z,99720.54
2023-05-23T00:31:50.635Z,99721.89
2023-05-23T00:34:22.707Z,99724.56
2023-05-23T00:36:54.511Z,99721.05
2023-05-23T00:39:27.057Z,99713.13
2023-05-23T00:41:59.096Z,99716.69
2023-05-23T00:44:31.885Z,99713.20
2023-05-23T00:47:03.832Z,99708.30
2023-05-23T00:49:36.164Z,99711.31
2023-05-23T00:52:08.123Z,99705.59
2023-05-23T00:54:40.210Z,99714.86
2023-05-23T00:57:13.294Z,99718.75
2023-05-23T00:59:45.247Z,99716.11
2023-05-23T01:02:17.301Z,99716.11
2023-05-23T01:04:52.393Z,99724.50
2023-05-23T01:07:24.396Z,99725.38
2023-05-23T01:09:56.285Z,99728.90
2023-05-23T01:12:46.828Z,99725.38
2023-05-23T01:15:21.006Z,99720.51
2023-05-23T01:18:03.315Z,99729.67
2023-05-23T01:20:41.217Z,99723.92
2023-05-23T01:23:32.725Z,99723.52
2023-05-23T01:26:35.284Z,99720.00
2023-05-23T01:29:12.658Z,99718.23
2023-05-23T01:31:45.778Z,99729.70
2023-05-23T01:34:19.048Z,99726.63
2023-05-23T01:36:54.044Z,99725.78
2023-05-23T01:39:26.237Z,99727.14
2023-05-23T01:41:57.976Z,99733.30
2023-05-23T01:44:31.256Z,99732.34
2023-05-23T01:47:04.993Z,99740.26
2023-05-23T01:49:37.901Z,99738.50
2023-05-23T01:52:13.339Z,99734.17
2023-05-23T01:54:45.324Z,99738.16
2023-05-23T01:57:17.509Z,99734.69
2023-05-23T01:59:49.709Z,99732.92
2023-05-23T02:02:22.254Z,99726.80
2023-05-23T02:04:54.288Z,99733.44
2023-05-23T02:07:26.202Z,99734.31
2023-05-23T02:09:58.009Z,99732.95
2023-05-23T02:12:29.802Z,99732.52
2023-05-23T02:15:02.884Z,99732.55
2023-05-23T02:17:35.232Z,99735.23
2023-05-23T02:20:08.536Z,99737.83
2023-05-23T02:22:41.360Z,99737.86
2023-05-23T02:25:13.204Z,99729.61
2023-05-23T02:27:45.277Z,99727.45
2023-05-23T02:30:20.214Z,99727.48
2023-05-23T02:32:54.066Z,99726.19
2023-05-23T02:35:26.255Z,99726.67
2023-05-23T02:37:58.233Z,99723.55
2023-05-23T02:40:30.065Z,99720.81
2023-05-23T02:43:01.689Z,99718.14
2023-05-23T02:45:34.528Z,99715.94
2023-05-23T02:48:06.771Z,99707.62
2023-05-23T02:50:39.019Z,99704.64
2023-05-23T02:53:10.706Z,99705.11
2023-05-23T02:55:43.342Z,99706.50
2023-05-23T02:58:15.198Z,99714.48
2023-05-23T03:00:47.350Z,99712.37
2023-05-23T03:03:19.406Z,99704.96
2023-05-23T03:05:51.912Z,99709.43
2023-05-23T03:08:24.227Z,99720.09
2023-05-23T03:10:55.864Z,99719.30
2023-05-23T03:13:27.900Z,99716.72
2023-05-23T03:16:00.155Z,99717.26
2023-05-23T03:18:32.349Z,99722.63
2023-05-23T03:21:04.203Z,99717.03
2023-05-23T03:23:36.903Z,99722.02
2023-05-23T03:26:08.900Z,99714.22
2023-05-23T03:28:41.576Z,99727.16
2023-05-23T03:31:13.599Z,99724.69
2023-05-23T03:33:45.711Z,99728.80
2023-05-23T03:36:17.485Z,99731.14
2023-05-23T03:38:49.135Z,99736.09
2023-05-23T03:41:21.693Z,99736.59
2023-05-23T03:43:54.142Z,99730.97
2023-05-23T03:46:26.821Z,99723.11
2023-05-23T03:48:58.915Z,99717.95
2023-05-23T03:51:31.910Z,99724.28
2023-05-23T03:54:03.917Z,99720.00
2023-05-23T03:56:36.005Z,99719.73
2023-05-23T03:59:08.291Z,99722.59
2023-05-23T04:01:40.368Z,99711.30
2023-05-23T04:04:12.834Z,99714.14
2023-05-23T04:06:44.877Z,99714.28
2023-05-23T04:09:17.248Z,99717.41
2023-05-23T04:11:50.983Z,99717.88
2023-05-23T04:14:24.469Z,99716.06
2023-05-23T04:16:57.172Z,99713.39
2023-05-23T04:19:29.370Z,99715.61
2023-05-23T04:22:01.693Z,99712.03
2023-05-23T04:24:33.809Z,99710.70
2023-05-23T04:27:06.068Z,99710.69
2023-05-23T04:29:38.759Z,99708.02
2023-05-23T04:32:11.584Z,99719.53
2023-05-23T04:34:44.428Z,99716.91
2023-05-23T04:37:17.566Z,99714.73
2023-05-23T04:39:53.330Z,99714.78
2023-05-23T04:42:36.301Z,99719.70
2023-05-23T04:45:12.526Z,99720.58
2023-05-23T04:47:49.099Z,99717.08
2023-05-23T04:50:25.756Z,99716.70
2023-05-23T04:52:57.736Z,99715.84
2023-05-23T04:55:29.699Z,99717.23
2023-05-23T04:58:02.170Z,99726.58
2023-05-23T05:00:34.400Z,99723.11
2023-05-23T05:03:06.780Z,99722.70
2023-05-23T05:05:39.077Z,99717.88
2023-05-23T05:08:11.862Z,99715.28
2023-05-23T05:10:43.839Z,99715.78
2023-05-23T05:13:16.226Z,99721.16
2023-05-23T05:15:49.834Z,99727.37
2023-05-23T05:18:21.931Z,99727.41
2023-05-23T05:20:54.141Z,99728.74
2023-05-23T05:23:29.545Z,99728.78
2023-05-23T05:26:01.663Z,99732.38
2023-05-23T05:28:33.527Z,99726.66
2023-05-23T05:31:05.789Z,99724.91
2023-05-23T05:33:40.025Z,99723.14
2023-05-23T05:36:13.495Z,99727.59
2023-05-23T05:38:46.558Z,99722.80
2023-05-23T05:41:18.804Z,99721.06
2023-05-23T05:43:52.286Z,99721.95
2023-05-23T05:46:24.859Z,99731.22
2023-05-23T05:48:57.212Z,99725.41
2023-05-23T05:51:29.619Z,99732.80
2023-05-23T05:54:01.392Z,99730.48
2023-05-23T05:56:33.302Z,99725.09
2023-05-23T05:59:05.013Z,99727.67
2023-05-23T06:01:38.049Z,99727.66
2023-05-23T06:04:10.587Z,99725.92
2023-05-23T06:06:42.764Z,99729.04
2023-05-23T06:09:14.800Z,99728.25
2023-05-23T06:11:47.325Z,99730.95
2023-05-23T06:14:19.503Z,99738.93
2023-05-23T06:16:52.350Z,99726.09
2023-05-23T06:19:24.547Z,99737.18
2023-05-23T06:21:56.281Z,99733.73
2023-05-23T06:24:28.283Z,99732.42
2023-05-23T06:27:00.171Z,99737.33
2023-05-23T06:29:32.082Z,99731.08
2023-05-23T06:32:04.325Z,99721.80
2023-05-23T06:34:36.317Z,99725.33
2023-05-23T06:37:08.427Z,99715.64
2023-05-23T06:39:40.609Z,99719.22
2023-05-23T06:42:12.531Z,99718.83
2023-05-23T06:44:46.300Z,99723.69
2023-05-23T06:47:18.175Z,99725.41
2023-05-23T06:49:50.328Z,99723.14
2023-05-23T06:52:22.589Z,99723.56
2023-05-23T06:54:55.825Z,99724.41
2023-05-23T06:57:27.688Z,99723.46
2023-05-23T06:59:59.987Z,99711.14
2023-05-23T07:02:32.949Z,99718.31
2023-05-23T07:05:07.247Z,99711.84
2023-05-23T07:07:41.570Z,99713.80
2023-05-23T07:10:13.806Z,99710.41
2023-05-23T07:12:52.176Z,99715.78
2023-05-23T07:15:25.386Z,99711.01
2023-05-23T07:17:58.842Z,99710.15
2023-05-23T07:20:31.411Z,99714.62
2023-05-23T07:23:05.110Z,99712.00
2023-05-23T07:25:40.334Z,99711.13
2023-05-23T07:28:12.281Z,99712.96
2023-05-23T07:30:45.531Z,99719.63
2023-05-23T07:33:17.814Z,99716.13
2023-05-23T07:35:51.132Z,99713.50
2023-05-23T07:38:23.591Z,99711.30
2023-05-23T07:41:09.956Z,99709.98
2023-05-23T07:43:29.384Z,99703.35
2023-05-23T07:46:01.609Z,99709.56
2023-05-23T07:48:34.065Z,99709.58
2023-05-23T07:51:06.272Z,99701.16
2023-05-23T07:53:40.401Z,99697.17
2023-05-23T07:56:14.280Z,99705.59
2023-05-23T07:58:46.832Z,99698.51
2023-05-23T08:01:18.701Z,99706.50
2023-05-23T08:03:55.227Z,99701.19
2023-05-23T08:06:28.783Z,99697.66
2023-05-23T08:09:02.794Z,99700.32
2023-05-23T08:11:34.928Z,99693.23
2023-05-23T08:14:06.833Z,99693.70
2023-05-23T08:16:43.579Z,99695.48
2023-05-23T08:19:17.500Z,99699.48
2023-05-23T08:21:50.314Z,99695.09
2023-05-23T08:24:22.436Z,99694.64
2023-05-23T08:26:54.351Z,99704.39
2023-05-23T08:29:26.609Z,99697.32
2023-05-23T08:31:59.137Z,99698.66
2023-05-23T08:34:31.595Z,99699.13
2023-05-23T08:37:04.584Z,99696.02
2023-05-23T08:39:38.054Z,99696.47
2023-05-23T08:42:27.615Z,99698.26
2023-05-23T08:44:59.786Z,99694.69
2023-05-23T08:47:32.125Z,99688.95
2023-05-23T08:50:08.330Z,99688.92
2023-05-23T08:52:53.330Z,99684.92
2023-05-23T08:55:30.100Z,99683.59
2023-05-23T08:58:03.862Z,99677.85
2023-05-23T09:00:49.097Z,99678.27
2023-05-23T09:03:21.385Z,99671.20
2023-05-23T09:06:00.425Z,99664.96
2023-05-23T09:08:33.634Z,99668.95
2023-05-23T09:11:06.974Z,99660.50
2023-05-23T09:13:40.749Z,99666.28
2023-05-23T09:16:13.583Z,99656.56
2023-05-23T09:18:47.789Z,99658.31
2023-05-23T09:21:21.060Z,99659.22
2023-05-23T09:24:13.252Z,99656.11
2023-05-23T09:26:50.301Z,99657.44
2023-05-23T09:29:22.078Z,99648.98
2023-05-23T09:31:53.980Z,99653.83
2023-05-23T09:34:26.889Z,99656.46
2023-05-23T09:36:58.912Z,99653.78
2023-05-23T09:39:31.044Z,99658.61
2023-05-23T09:42:03.128Z,99651.47
2023-05-23T09:44:35.086Z,99648.34
2023-05-23T09:47:08.360Z,99651.02
2023-05-23T09:49:41.522Z,99652.82
2023-05-23T09:52:13.802Z,99651.94
2023-05-23T09:54:46.766Z,99654.13
2023-05-23T09:57:19.003Z,99659.92
2023-05-23T09:59:55.576Z,99654.16
2023-05-23T10:02:45.320Z,99658.64
2023-05-23T10:05:20.275Z,99652.45
2023-05-23T10:07:52.722Z,99648.02
2023-05-23T10:10:24.773Z,99645.37
2023-05-23T10:12:57.494Z,99640.49
2023-05-23T10:15:30.564Z,99644.02
2023-05-23T10:18:08.940Z,99644.44
2023-05-23T10:20:42.663Z,99641.70
2023-05-23T10:23:14.796Z,99646.56
2023-05-23T10:25:47.083Z,99643.81
2023-05-23T10:28:18.762Z,99649.50
2023-05-23T10:30:51.351Z,99638.70
2023-05-23T10:33:25.119Z,99646.66
2023-05-23T10:36:11.598Z,99644.48
2023-05-23T10:39:04.576Z,99642.78
2023-05-23T10:41:39.662Z,99638.81
2023-05-23T10:44:15.866Z,99646.42
2023-05-23T10:46:54.880Z,99638.03
2023-05-23T10:49:44.068Z,99645.56
2023-05-23T10:52:20.034Z,99633.09
2023-05-23T10:54:53.930Z,99641.94
2023-05-23T10:57:29.165Z,99638.38
2023-05-23T11:00:00.918Z,99639.25
2023-05-23T11:02:33.280Z,99641.04
2023-05-23T11:05:27.094Z,99645.92
2023-05-23T11:08:14.191Z,99634.36
2023-05-23T11:11:03.053Z,99637.91
2023-05-23T11:13:57.075Z,99634.27
2023-05-23T11:16:33.886Z,99638.55
2023-05-23T11:19:25.687Z,99634.03
2023-05-23T11:22:03.048Z,99629.17
2023-05-23T11:24:53.715Z,99627.42
2023-05-23T11:27:40.973Z,99626.20
2023-05-23T11:30:14.888Z,99624.03
2023-05-23T11:32:54.935Z,99629.38
2023-05-23T11:35:27.040Z,99630.70
2023-05-23T11:37:59.311Z,99621.78
2023-05-23T11:40:36.056Z,99628.01
2023-05-23T11:43:09.515Z,99626.70
2023-05-23T11:45:42.179Z,99632.51
2023-05-23T11:48:18.141Z,99627.61
2023-05-23T11:50:54.536Z,99626.64
2023-05-23T11:53:28.860Z,99627.91
2023-05-23T11:56:02.304Z,99622.55
2023-05-23T11:58:41.652Z,99623.34
2023-05-23T12:01:14.076Z,99621.44
2023-05-23T12:03:52.977Z,99620.50
2023-05-23T12:06:26.364Z,99618.69
2023-05-23T12:09:01.311Z,99618.63
2023-05-23T12:11:34.159Z,99610.95
2023-05-23T12:14:06.757Z,99614.35
2023-05-23T12:16:39.880Z,99612.80
2023-05-23T12:19:11.974Z,99610.94
2023-05-23T12:21:45.045Z,99610.33
2023-05-23T12:24:18.235Z,99603.58
2023-05-23T12:26:58.325Z,99603.91
2023-05-23T12:29:34.825Z,99602.98
2023-05-23T12:32:07.829Z,99600.67
2023-05-23T12:34:44.441Z,99600.27
2023-05-23T12:37:20.234Z,99598.16
2023-05-23T12:39:49.806Z,99596.91
2023-05-23T12:42:21.984Z,99590.14
2023-05-23T12:44:55.005Z,99581.55
2023-05-23T12:47:26.961Z,99587.22
2023-05-23T12:49:59.024Z,99580.94
2023-05-23T12:52:30.682Z,99581.23
2023-05-23T12:55:02.279Z,99580.34
2023-05-23T12:57:36.558Z,99582.16
2023-05-23T13:00:09.908Z,99578.75
2023-05-23T13:02:41.909Z,99585.67
2023-05-23T13:05:13.762Z,99584.04
2023-05-23T13:07:45.672Z,99586.41
2023-05-23T13:10:17.743Z,99590.52
2023-05-23T13:12:49.653Z,99588.44
2023-05-23T13:15:21.900Z,99592.16
2023-05-23T13:17:53.787Z,99593.65
2023-05-23T13:20:27.254Z,99583.55
2023-05-23T13:22:59.287Z,99586.77
2023-05-23T13:25:31.298Z,99583.80
2023-05-23T13:28:03.455Z,99583.02
2023-05-23T13:30:35.610Z,99581.77
2023-05-23T13:33:07.432Z,99587.61
2023-05-23T13:35:39.511Z,99576.55
2023-05-23T13:38:11.832Z,99581.92
2023-05-23T13:40:43.721Z,99581.92
2023-05-23T13:43:15.905Z,99583.73
2023-05-23T13:45:47.868Z,99587.75
2023-05-23T13:48:19.660Z,99590.45
2023-05-23T13:50:52.116Z,99590.06
2023-05-23T13:53:24.638Z,99581.19
2023-05-23T13:55:56.593Z,99576.36
2023-05-23T13:58:30.167Z,99573.28
2023-05-23T14:01:02.913Z,99576.85
2023-05-23T14:03:35.869Z,99574.66
2023-05-23T14:06:08.039Z,99583.09
2023-05-23T14:08:41.049Z,99580.03
2023-05-23T14:11:12.719Z,99578.72
2023-05-23T14:13:44.582Z,99575.61
2023-05-23T14:16:16.661Z,99581.41
2023-05-23T14:18:48.793Z,99576.97
2023-05-23T14:21:20.590Z,99580.98
2023-05-23T14:23:52.531Z,99580.99
2023-05-23T14:26:24.725Z,99577.01
2023-05-23T14:28:57.257Z,99573.48
2023-05-23T14:31:29.283Z,99572.13
2023-05-23T14:34:01.155Z,99571.27
2023-05-23T14:36:33.470Z,99570.41
2023-05-23T14:39:06.518Z,99568.19
2023-05-23T14:41:39.705Z,99565.56
2023-05-23T14:44:11.775Z,99575.77
2023-05-23T14:46:45.475Z,99574.00
2023-05-23T14:49:18.296Z,99574.91
2023-05-23T14:51:51.682Z,99573.13
2023-05-23T14:54:23.916Z,99574.47
2023-05-23T14:56:56.914Z,99575.83
2023-05-23T14:59:29.273Z,99576.30
2023-05-23T15:02:01.305Z,99583.42
2023-05-23T15:04:34.159Z,99579.86
2023-05-23T15:07:06.285Z,99580.77
2023-05-23T15:09:38.650Z,99576.32
2023-05-23T15:12:13.040Z,99578.97
2023-05-23T15:14:45.668Z,99575.88
2023-05-23T15:17:19.662Z,99581.61
2023-05-23T15:19:52.471Z,99585.16
2023-05-23T15:22:37.848Z,99587.81
2023-05-23T15:25:02.403Z,99583.36
2023-05-23T15:27:34.588Z,99583.80
2023-05-23T15:30:07.508Z,99587.33
2023-05-23T15:32:39.292Z,99574.95
2023-05-23T15:35:11.497Z,99570.96
2023-05-23T15:37:45.115Z,99576.68
2023-05-23T15:40:17.162Z,99573.61
2023-05-23T15:42:49.340Z,99584.66
2023-05-23T15:45:21.560Z,99587.77
2023-05-23T15:47:53.308Z,99588.17
2023-05-23T15:50:25.310Z,99584.16
2023-05-23T15:52:57.312Z,99583.27
2023-05-23T15:55:29.081Z,99579.69
2023-05-23T15:58:01.022Z,99571.28
2023-05-23T16:00:32.797Z,99570.83
2023-05-23T16:03:05.015Z,99575.26
2023-05-23T16:05:36.722Z,99574.37
2023-05-23T16:08:08.834Z,99571.27
2023-05-23T16:10:40.759Z,99567.28
2023-05-23T16:13:12.709Z,99569.47
2023-05-23T16:15:44.885Z,99577.44
2023-05-23T16:18:17.535Z,99580.09
2023-05-23T16:20:49.860Z,99580.09
2023-05-23T16:23:21.697Z,99581.00
2023-05-23T16:25:54.229Z,99591.17
2023-05-23T16:28:29.283Z,99597.35
2023-05-23T16:31:01.618Z,99603.56
2023-05-23T16:33:34.595Z,99608.88
2023-05-23T16:36:06.823Z,99614.60
2023-05-23T16:38:39.343Z,99613.70
2023-05-23T16:41:11.814Z,99611.94
2023-05-23T16:43:44.071Z,99611.05
2023-05-23T16:46:19.024Z,99614.17
2023-05-23T16:48:50.193Z,99601.33
2023-05-23T16:51:23.742Z,99601.32
2023-05-23T16:53:55.774Z,99596.45
2023-05-23T16:56:27.967Z,99593.79
2023-05-23T16:59:00.177Z,99598.20
2023-05-23T17:01:32.380Z,99605.27
2023-05-23T17:04:05.566Z,99602.16
2023-05-23T17:06:38.317Z,99608.78
2023-05-23T17:09:10.417Z,99606.58
2023-05-23T17:11:43.022Z,99610.56
2023-05-23T17:14:14.954Z,99618.50
2023-05-23T17:16:47.464Z,99618.02
2023-05-23T17:19:19.703Z,99610.48
2023-05-23T17:21:52.641Z,99618.88
2023-05-23T17:24:24.907Z,99616.61
2023-05-23T17:26:57.100Z,99618.81
2023-05-23T17:29:29.607Z,99620.95
2023-05-23T17:32:02.669Z,99620.87
2023-05-23T17:34:56.047Z,99633.23
2023-05-23T17:37:28.662Z,99634.56
2023-05-23T17:40:00.770Z,99638.07
2023-05-23T17:42:33.440Z,99645.59
2023-05-23T17:45:05.795Z,99645.52
2023-05-23T17:47:37.853Z,99644.14
2023-05-23T17:50:11.736Z,99643.66
2023-05-23T17:52:45.504Z,99644.09
2023-05-23T17:55:17.457Z,99640.95
2023-05-23T17:57:49.466Z,99640.48
2023-05-23T18:00:21.755Z,99640.02
2023-05-23T18:02:54.670Z,99635.15
2023-05-23T18:05:26.890Z,99636.43
2023-05-23T18:07:58.992Z,99636.86
2023-05-23T18:10:30.926Z,99641.25
2023-05-23T18:13:02.825Z,99641.67
2023-05-23T18:15:34.612Z,99639.45
2023-05-23T18:18:07.204Z,99641.63
2023-05-23T18:20:39.197Z,99638.95
2023-05-23T18:23:11.220Z,99645.98
2023-05-23T18:25:43.260Z,99655.23
2023-05-23T18:28:15.353Z,99659.17
2023-05-23T18:30:47.077Z,99660.02
2023-05-23T18:33:19.214Z,99663.09
2023-05-23T18:35:51.749Z,99667.50
2023-05-23T18:38:23.935Z,99671.02
2023-05-23T18:40:55.582Z,99665.73
2023-05-23T18:43:27.773Z,99668.45
2023-05-23T18:45:59.764Z,99672.05
2023-05-23T18:48:33.567Z,99673.44
2023-05-23T18:51:05.764Z,99673.48
2023-05-23T18:53:38.133Z,99678.82
2023-05-23T18:56:11.242Z,99672.66
2023-05-23T18:58:45.374Z,99684.14
2023-05-23T19:01:17.281Z,99685.94
2023-05-23T19:03:49.638Z,99696.13
2023-05-23T19:06:21.466Z,99684.67
2023-05-23T19:08:53.105Z,99696.16
2023-05-23T19:11:26.542Z,99695.69
2023-05-23T19:13:58.509Z,99684.16
2023-05-23T19:16:30.484Z,99689.80
2023-05-23T19:19:02.656Z,99685.33
2023-05-23T19:21:34.345Z,99687.53
2023-05-23T19:24:07.718Z,99686.64
2023-05-23T19:26:41.183Z,99691.95
2023-05-23T19:29:13.191Z,99689.27
2023-05-23T19:31:45.030Z,99694.11
2023-05-23T19:34:17.082Z,99693.59
2023-05-23T19:36:49.059Z,99691.80
2023-05-23T19:39:21.622Z,99693.12
2023-05-23T19:41:53.656Z,99693.54
2023-05-23T19:44:25.833Z,99689.10
2023-05-23T19:46:57.439Z,99691.75
2023-05-23T19:49:29.405Z,99680.28
2023-05-23T19:52:00.969Z,99679.41
2023-05-23T19:54:33.133Z,99675.05
2023-05-23T19:57:05.564Z,99675.06
2023-05-23T19:59:37.649Z,99677.71
2023-05-23T20:02:10.748Z,99673.72
2023-05-23T20:04:42.549Z,99674.16
2023-05-23T20:07:14.380Z,99671.05
2023-05-23T20:09:46.281Z,99667.94
2023-05-23T20:12:18.515Z,99667.50
2023-05-23T20:14:50.761Z,99670.97
2023-05-23T20:17:22.744Z,99669.64
2023-05-23T20:19:55.800Z,99671.44
2023-05-23T20:22:27.764Z,99670.58
2023-05-23T20:24:59.361Z,99668.84
2023-05-23T20:27:31.472Z,99673.27
2023-05-23T20:30:03.192Z,99679.48
2023-05-23T20:32:36.786Z,99682.14
2023-05-23T20:35:09.170Z,99684.77
2023-05-23T20:37:41.266Z,99682.91
2023-05-23T20:40:13.329Z,99682.02
2023-05-23T20:42:49.502Z,99684.17
2023-05-23T20:45:21.926Z,99689.88
2023-05-23T20:47:53.841Z,99685.03
2023-05-23T20:50:26.321Z,99695.20
2023-05-23T20:52:59.441Z,99701.41
2023-05-23T20:55:33.956Z,99695.65
2023-05-23T20:58:06.924Z,99703.13
2023-05-23T21:00:38.893Z,99700.02
2023-05-23T21:03:10.945Z,99702.20
2023-05-23T21:05:43.071Z,99702.57
2023-05-23T21:08:15.050Z,99707.40
2023-05-23T21:10:50.047Z,99702.49
2023-05-23T21:13:20.885Z,99703.27
2023-05-23T21:15:52.832Z,99706.67
2023-05-23T21:18:24.770Z,99708.78
2023-05-23T21:20:56.646Z,99712.23
2023-05-23T21:23:28.257Z,99709.97
2023-05-23T21:26:00.698Z,99704.17
2023-05-23T21:28:33.166Z,99700.58
2023-05-23T21:31:06.046Z,99697.01
2023-05-23T21:33:38.096Z,99694.27
2023-05-23T21:36:09.858Z,99688.89
2023-05-23T21:38:41.882Z,99694.55
2023-05-23T21:41:13.542Z,99696.68
2023-05-23T21:43:45.997Z,99684.27
2023-05-23T21:46:17.729Z,99688.20
2023-05-23T21:48:49.425Z,99696.53
2023-05-23T21:51:21.175Z,99686.84
2023-05-23T21:53:53.213Z,99683.31
2023-05-23T21:56:25.042Z,99683.75
2023-05-23T21:58:56.774Z,99682.86
2023-05-23T22:01:28.606Z,99681.95
2023-05-23T22:04:00.648Z,99683.63
2023-05-23T22:06:33.723Z,99686.22
2023-05-23T22:09:10.368Z,99675.16
2023-05-23T22:11:43.639Z,99676.81
2023-05-23T22:14:15.389Z,99679.80
2023-05-23T22:16:47.208Z,99677.08
2023-05-23T22:19:20.365Z,99678.82
2023-05-23T22:21:53.457Z,99675.73
2023-05-23T22:24:25.589Z,99675.73
2023-05-23T22:26:58.493Z,99676.17
2023-05-23T22:29:30.392Z,99680.14
2023-05-23T22:32:02.117Z,99680.97
2023-05-23T22:34:34.692Z,99682.27
2023-05-23T22:37:06.544Z,99677.34
2023-05-23T22:39:38.679Z,99675.09
2023-05-23T22:42:10.445Z,99676.83
2023-05-23T22:44:42.375Z,99687.42
2023-05-23T22:47:14.459Z,99686.92
2023-05-23T22:49:46.225Z,99684.25
2023-05-23T22:52:17.879Z,99684.23
2023-05-23T22:54:49.512Z,99689.98
2023-05-23T22:57:21.201Z,99688.25
2023-05-23T22:59:52.946Z,99687.39
2023-05-23T23:02:24.884Z,99687.01
2023-05-23T23:04:56.524Z,99683.50
2023-05-23T23:07:28.103Z,99695.07
2023-05-23T23:10:00.041Z,99692.51
2023-05-23T23:12:32.101Z,99696.05
2023-05-23T23:15:04.188Z,99687.70
2023-05-23T23:17:36.311Z,99703.59
2023-05-23T23:20:09.340Z,99701.38
2023-05-23T23:22:41.582Z,99698.26
2023-05-23T23:25:13.278Z,99697.82
2023-05-23T23:27:45.454Z,99700.46
2023-05-23T23:30:17.208Z,99704.84
2023-05-23T23:32:49.209Z,99699.14
2023-05-23T23:35:20.995Z,99694.23
2023-05-23T23:37:52.968Z,99698.20
2023-05-23T23:40:24.969Z,99698.17
2023-05-23T23:42:56.858Z,99695.51
2023-05-23T23:45:28.494Z,99691.96
2023-05-23T23:48:00.179Z,99688.41
2023-05-23T23:50:31.922Z,99694.08
2023-05-23T23:53:03.722Z,99692.70
2023-05-23T23:55:35.650Z,99690.45
2023-05-23T23:58:07.509Z,99692.62
